sensor_id;sensor_type;location;lat;lon;timestamp;pressure;altitude;pressure_sealevel;temperature
64790;BMP280;51223;51.816;5.862;2022-07-29T00:01:32;101674.59;;;23.80
64790;BMP280;51223;51.816;5.862;2022-07-29T00:03:58;101680.63;;;24.24
64790;BMP280;51223;51.816;5.862;2022-07-29T00:06:24;101677.66;;;24.50
64790;BMP280;51223;51.816;5.862;2022-07-29T00:08:50;101676.59;;;23.74
64790;BMP280;51223;51.816;5.862;2022-07-29T00:11:15;101681.50;;;23.99
64790;BMP280;51223;51.816;5.862;2022-07-29T00:13:41;101677.41;;;24.11
64790;BMP280;51223;51.816;5.862;2022-07-29T00:16:07;101673.72;;;23.74
64790;BMP280;51223;51.816;5.862;2022-07-29T00:18:33;101674.47;;;24.43
64790;BMP280;51223;51.816;5.862;2022-07-29T00:20:59;101669.03;;;24.02
64790;BMP280;51223;51.816;5.862;2022-07-29T00:23:25;101662.34;;;23.54
64790;BMP280;51223;51.816;5.862;2022-07-29T00:25:50;101675.75;;;23.36
64790;BMP280;51223;51.816;5.862;2022-07-29T00:28:16;101652.19;;;23.53
64790;BMP280;51223;51.816;5.862;2022-07-29T00:30:45;101655.19;;;23.38
64790;BMP280;51223;51.816;5.862;2022-07-29T00:33:11;101646.84;;;23.97
64790;BMP280;51223;51.816;5.862;2022-07-29T00:35:39;101646.81;;;23.92
64790;BMP280;51223;51.816;5.862;2022-07-29T00:38:16;101649.38;;;24.32
64790;BMP280;51223;51.816;5.862;2022-07-29T00:40:44;101654.66;;;23.97
64790;BMP280;51223;51.816;5.862;2022-07-29T00:43:14;101652.94;;;24.64
64790;BMP280;51223;51.816;5.862;2022-07-29T00:45:43;101651.53;;;23.37
64790;BMP280;51223;51.816;5.862;2022-07-29T00:48:09;101645.22;;;23.91
64790;BMP280;51223;51.816;5.862;2022-07-29T00:50:38;101647.69;;;23.72
64790;BMP280;51223;51.816;5.862;2022-07-29T00:53:06;101645.16;;;23.85
64790;BMP280;51223;51.816;5.862;2022-07-29T00:55:32;101647.25;;;23.02
64790;BMP280;51223;51.816;5.862;2022-07-29T00:58:02;101647.69;;;23.72
64790;BMP280;51223;51.816;5.862;2022-07-29T01:00:28;101648.88;;;23.91
64790;BMP280;51223;51.816;5.862;2022-07-29T01:02:54;101649.56;;;23.49
64790;BMP280;51223;51.816;5.862;2022-07-29T01:05:22;101648.13;;;23.59
64790;BMP280;51223;51.816;5.862;2022-07-29T01:07:51;101650.50;;;22.49
64790;BMP280;51223;51.816;5.862;2022-07-29T01:10:19;101646.31;;;23.62
64790;BMP280;51223;51.816;5.862;2022-07-29T01:12:48;101654.91;;;23.62
64790;BMP280;51223;51.816;5.862;2022-07-29T01:15:15;101661.50;;;23.73
64790;BMP280;51223;51.816;5.862;2022-07-29T01:17:49;101660.69;;;23.42
64790;BMP280;51223;51.816;5.862;2022-07-29T01:20:24;101668.28;;;23.45
64790;BMP280;51223;51.816;5.862;2022-07-29T01:23:01;101678.81;;;23.90
64790;BMP280;51223;51.816;5.862;2022-07-29T01:28:51;101678.25;;;23.86
64790;BMP280;51223;51.816;5.862;2022-07-29T01:31:57;101675.88;;;24.16
64790;BMP280;51223;51.816;5.862;2022-07-29T01:34:35;101680.03;;;24.09
64790;BMP280;51223;51.816;5.862;2022-07-29T01:37:18;101686.66;;;23.38
64790;BMP280;51223;51.816;5.862;2022-07-29T01:39:47;101680.88;;;23.90
64790;BMP280;51223;51.816;5.862;2022-07-29T01:42:27;101683.41;;;23.76
64790;BMP280;51223;51.816;5.862;2022-07-29T01:45:10;101691.13;;;23.96
64790;BMP280;51223;51.816;5.862;2022-07-29T01:48:00;101693.88;;;22.67
64790;BMP280;51223;51.816;5.862;2022-07-29T01:50:34;101705.31;;;22.32
64790;BMP280;51223;51.816;5.862;2022-07-29T01:53:07;101698.38;;;23.92
64790;BMP280;51223;51.816;5.862;2022-07-29T01:55:38;101693.00;;;24.05
64790;BMP280;51223;51.816;5.862;2022-07-29T01:58:06;101690.06;;;23.62
64790;BMP280;51223;51.816;5.862;2022-07-29T02:00:33;101688.22;;;23.59
64790;BMP280;51223;51.816;5.862;2022-07-29T02:03:11;101694.78;;;23.65
64790;BMP280;51223;51.816;5.862;2022-07-29T02:05:40;101699.69;;;22.73
64790;BMP280;51223;51.816;5.862;2022-07-29T02:08:07;101697.97;;;23.01
64790;BMP280;51223;51.816;5.862;2022-07-29T02:10:35;101698.09;;;23.32
64790;BMP280;51223;51.816;5.862;2022-07-29T02:13:03;101706.03;;;23.49
64790;BMP280;51223;51.816;5.862;2022-07-29T02:15:32;101709.34;;;22.75
64790;BMP280;51223;51.816;5.862;2022-07-29T02:18:01;101708.22;;;22.87
64790;BMP280;51223;51.816;5.862;2022-07-29T02:20:29;101714.50;;;22.36
64790;BMP280;51223;51.816;5.862;2022-07-29T02:22:57;101696.84;;;22.03
64790;BMP280;51223;51.816;5.862;2022-07-29T02:25:24;101691.97;;;22.09
64790;BMP280;51223;51.816;5.862;2022-07-29T02:27:51;101683.44;;;22.44
64790;BMP280;51223;51.816;5.862;2022-07-29T02:30:18;101677.22;;;23.06
64790;BMP280;51223;51.816;5.862;2022-07-29T02:32:45;101680.22;;;22.97
64790;BMP280;51223;51.816;5.862;2022-07-29T02:35:13;101671.72;;;22.07
64790;BMP280;51223;51.816;5.862;2022-07-29T02:37:39;101652.13;;;22.35
64790;BMP280;51223;51.816;5.862;2022-07-29T02:40:09;101648.50;;;21.85
64790;BMP280;51223;51.816;5.862;2022-07-29T02:42:41;101645.44;;;22.78
64790;BMP280;51223;51.816;5.862;2022-07-29T02:45:08;101635.88;;;22.26
64790;BMP280;51223;51.816;5.862;2022-07-29T02:47:41;101627.44;;;22.17
64790;BMP280;51223;51.816;5.862;2022-07-29T02:50:20;101617.16;;;21.90
64790;BMP280;51223;51.816;5.862;2022-07-29T02:52:57;101612.88;;;22.15
64790;BMP280;51223;51.816;5.862;2022-07-29T02:55:44;101618.59;;;22.15
64790;BMP280;51223;51.816;5.862;2022-07-29T02:58:32;101613.78;;;22.07
64790;BMP280;51223;51.816;5.862;2022-07-29T03:01:04;101615.41;;;22.13
64790;BMP280;51223;51.816;5.862;2022-07-29T03:03:35;101620.75;;;22.20
64790;BMP280;51223;51.816;5.862;2022-07-29T03:06:03;101615.66;;;21.95
64790;BMP280;51223;51.816;5.862;2022-07-29T03:08:31;101614.16;;;22.14
64790;BMP280;51223;51.816;5.862;2022-07-29T03:10:57;101610.28;;;21.97
64790;BMP280;51223;51.816;5.862;2022-07-29T03:13:23;101607.88;;;21.95
64790;BMP280;51223;51.816;5.862;2022-07-29T03:15:50;101604.34;;;21.86
64790;BMP280;51223;51.816;5.862;2022-07-29T03:18:16;101603.38;;;21.89
64790;BMP280;51223;51.816;5.862;2022-07-29T03:20:43;101603.03;;;22.57
64790;BMP280;51223;51.816;5.862;2022-07-29T03:23:08;101592.19;;;21.71
64790;BMP280;51223;51.816;5.862;2022-07-29T03:25:34;101587.06;;;21.75
64790;BMP280;51223;51.816;5.862;2022-07-29T03:28:03;101581.66;;;21.62
64790;BMP280;51223;51.816;5.862;2022-07-29T03:30:29;101583.13;;;21.72
64790;BMP280;51223;51.816;5.862;2022-07-29T03:32:56;101579.91;;;21.21
64790;BMP280;51223;51.816;5.862;2022-07-29T03:35:22;101578.41;;;21.54
64790;BMP280;51223;51.816;5.862;2022-07-29T03:37:48;101576.47;;;21.61
64790;BMP280;51223;51.816;5.862;2022-07-29T03:40:20;101583.50;;;21.50
64790;BMP280;51223;51.816;5.862;2022-07-29T03:42:48;101572.38;;;20.79
64790;BMP280;51223;51.816;5.862;2022-07-29T03:45:17;101568.78;;;20.70
64790;BMP280;51223;51.816;5.862;2022-07-29T03:47:53;101568.38;;;21.59
64790;BMP280;51223;51.816;5.862;2022-07-29T03:50:20;101575.97;;;21.18
64790;BMP280;51223;51.816;5.862;2022-07-29T03:52:47;101573.91;;;21.19
64790;BMP280;51223;51.816;5.862;2022-07-29T03:55:16;101582.47;;;21.19
64790;BMP280;51223;51.816;5.862;2022-07-29T03:57:44;101587.44;;;19.90
64790;BMP280;51223;51.816;5.862;2022-07-29T04:00:11;101595.75;;;20.12
64790;BMP280;51223;51.816;5.862;2022-07-29T04:02:38;101600.88;;;21.32
64790;BMP280;51223;51.816;5.862;2022-07-29T04:05:04;101599.28;;;21.61
64790;BMP280;51223;51.816;5.862;2022-07-29T04:07:30;101601.38;;;21.95
64790;BMP280;51223;51.816;5.862;2022-07-29T04:09:56;101601.63;;;21.77
64790;BMP280;51223;51.816;5.862;2022-07-29T04:12:21;101605.50;;;22.09
64790;BMP280;51223;51.816;5.862;2022-07-29T04:14:47;101598.50;;;21.45
64790;BMP280;51223;51.816;5.862;2022-07-29T04:17:14;101607.09;;;21.95
64790;BMP280;51223;51.816;5.862;2022-07-29T04:19:42;101596.84;;;22.03
64790;BMP280;51223;51.816;5.862;2022-07-29T04:22:08;101599.97;;;22.05
64790;BMP280;51223;51.816;5.862;2022-07-29T04:24:37;101594.78;;;22.04
64790;BMP280;51223;51.816;5.862;2022-07-29T04:27:08;101589.88;;;22.04
64790;BMP280;51223;51.816;5.862;2022-07-29T04:29:37;101587.81;;;21.02
64790;BMP280;51223;51.816;5.862;2022-07-29T04:32:03;101590.50;;;21.49
64790;BMP280;51223;51.816;5.862;2022-07-29T04:34:29;101596.53;;;21.37
64790;BMP280;51223;51.816;5.862;2022-07-29T04:36:55;101598.78;;;21.18
64790;BMP280;51223;51.816;5.862;2022-07-29T04:39:21;101596.97;;;20.91
64790;BMP280;51223;51.816;5.862;2022-07-29T04:41:47;101607.00;;;21.01
64790;BMP280;51223;51.816;5.862;2022-07-29T04:44:13;101607.09;;;21.07
64790;BMP280;51223;51.816;5.862;2022-07-29T04:46:38;101606.22;;;21.01
64790;BMP280;51223;51.816;5.862;2022-07-29T04:49:04;101604.84;;;20.73
64790;BMP280;51223;51.816;5.862;2022-07-29T04:51:30;101609.38;;;21.03
64790;BMP280;51223;51.816;5.862;2022-07-29T04:53:56;101608.84;;;20.90
64790;BMP280;51223;51.816;5.862;2022-07-29T04:56:22;101613.28;;;20.91
64790;BMP280;51223;51.816;5.862;2022-07-29T04:58:48;101613.75;;;20.89
64790;BMP280;51223;51.816;5.862;2022-07-29T05:01:14;101620.50;;;21.16
64790;BMP280;51223;51.816;5.862;2022-07-29T05:03:40;101634.13;;;21.21
64790;BMP280;51223;51.816;5.862;2022-07-29T05:06:09;101630.72;;;21.95
64790;BMP280;51223;51.816;5.862;2022-07-29T05:08:35;101642.66;;;22.09
64790;BMP280;51223;51.816;5.862;2022-07-29T05:11:01;101656.34;;;21.90
64790;BMP280;51223;51.816;5.862;2022-07-29T05:13:27;101654.88;;;21.80
64790;BMP280;51223;51.816;5.862;2022-07-29T05:15:53;101652.81;;;21.36
64790;BMP280;51223;51.816;5.862;2022-07-29T05:18:19;101647.66;;;21.26
64790;BMP280;51223;51.816;5.862;2022-07-29T05:20:45;101648.06;;;21.92
64790;BMP280;51223;51.816;5.862;2022-07-29T05:23:11;101642.66;;;21.50
64790;BMP280;51223;51.816;5.862;2022-07-29T05:25:38;101645.47;;;21.06
64790;BMP280;51223;51.816;5.862;2022-07-29T05:28:04;101653.88;;;21.39
64790;BMP280;51223;51.816;5.862;2022-07-29T05:30:30;101641.56;;;19.81
64790;BMP280;51223;51.816;5.862;2022-07-29T05:32:56;101640.22;;;20.66
64790;BMP280;51223;51.816;5.862;2022-07-29T05:35:21;101632.34;;;21.23
64790;BMP280;51223;51.816;5.862;2022-07-29T05:37:48;101639.53;;;20.95
64790;BMP280;51223;51.816;5.862;2022-07-29T05:40:13;101626.03;;;21.19
64790;BMP280;51223;51.816;5.862;2022-07-29T05:42:39;101636.03;;;21.00
64790;BMP280;51223;51.816;5.862;2022-07-29T05:45:05;101650.44;;;21.35
64790;BMP280;51223;51.816;5.862;2022-07-29T05:47:31;101645.69;;;20.79
64790;BMP280;51223;51.816;5.862;2022-07-29T05:49:57;101654.38;;;20.84
64790;BMP280;51223;51.816;5.862;2022-07-29T05:52:23;101653.22;;;21.44
64790;BMP280;51223;51.816;5.862;2022-07-29T05:54:52;101660.31;;;21.63
64790;BMP280;51223;51.816;5.862;2022-07-29T05:57:19;101658.13;;;21.43
64790;BMP280;51223;51.816;5.862;2022-07-29T05:59:45;101644.38;;;21.03
64790;BMP280;51223;51.816;5.862;2022-07-29T06:02:11;101659.03;;;21.79
64790;BMP280;51223;51.816;5.862;2022-07-29T06:04:37;101650.00;;;21.13
64790;BMP280;51223;51.816;5.862;2022-07-29T06:07:03;101647.09;;;21.22
64790;BMP280;51223;51.816;5.862;2022-07-29T06:09:36;101651.03;;;21.39
64790;BMP280;51223;51.816;5.862;2022-07-29T06:12:02;101656.44;;;21.22
64790;BMP280;51223;51.816;5.862;2022-07-29T06:14:31;101652.88;;;20.89
64790;BMP280;51223;51.816;5.862;2022-07-29T06:16:58;101642.06;;;21.46
64790;BMP280;51223;51.816;5.862;2022-07-29T06:19:24;101645.34;;;21.68
64790;BMP280;51223;51.816;5.862;2022-07-29T06:21:52;101645.66;;;21.02
64790;BMP280;51223;51.816;5.862;2022-07-29T06:24:35;101655.00;;;21.71
64790;BMP280;51223;51.816;5.862;2022-07-29T06:27:02;101647.09;;;21.51
64790;BMP280;51223;51.816;5.862;2022-07-29T06:29:28;101650.88;;;21.72
64790;BMP280;51223;51.816;5.862;2022-07-29T06:31:57;101654.09;;;22.09
64790;BMP280;51223;51.816;5.862;2022-07-29T06:34:28;101654.59;;;22.27
64790;BMP280;51223;51.816;5.862;2022-07-29T06:37:19;101645.56;;;22.49
64790;BMP280;51223;51.816;5.862;2022-07-29T06:39:53;101650.16;;;22.26
64790;BMP280;51223;51.816;5.862;2022-07-29T06:42:47;101655.56;;;21.75
64790;BMP280;51223;51.816;5.862;2022-07-29T06:45:40;101650.81;;;22.01
64790;BMP280;51223;51.816;5.862;2022-07-29T06:48:17;101653.28;;;22.08
64790;BMP280;51223;51.816;5.862;2022-07-29T06:50:46;101661.56;;;22.06
64790;BMP280;51223;51.816;5.862;2022-07-29T06:53:28;101654.41;;;22.31
64790;BMP280;51223;51.816;5.862;2022-07-29T06:56:02;101659.78;;;21.35
64790;BMP280;51223;51.816;5.862;2022-07-29T06:58:31;101656.16;;;22.08
64790;BMP280;51223;51.816;5.862;2022-07-29T07:00:58;101660.91;;;21.67
64790;BMP280;51223;51.816;5.862;2022-07-29T07:03:37;101650.63;;;21.90
64790;BMP280;51223;51.816;5.862;2022-07-29T07:06:03;101651.66;;;21.72
64790;BMP280;51223;51.816;5.862;2022-07-29T07:09:10;101644.50;;;21.09
64790;BMP280;51223;51.816;5.862;2022-07-29T07:11:38;101648.22;;;21.15
64790;BMP280;51223;51.816;5.862;2022-07-29T07:15:00;101664.84;;;21.84
64790;BMP280;51223;51.816;5.862;2022-07-29T07:17:51;101655.00;;;21.71
64790;BMP280;51223;51.816;5.862;2022-07-29T07:20:17;101664.91;;;21.90
64790;BMP280;51223;51.816;5.862;2022-07-29T07:22:46;101667.47;;;22.03
64790;BMP280;51223;51.816;5.862;2022-07-29T07:25:32;101670.03;;;21.27
64790;BMP280;51223;51.816;5.862;2022-07-29T07:28:23;101684.00;;;22.13
64790;BMP280;51223;51.816;5.862;2022-07-29T07:31:31;101685.94;;;22.22
64790;BMP280;51223;51.816;5.862;2022-07-29T07:34:52;101671.81;;;21.98
64790;BMP280;51223;51.816;5.862;2022-07-29T07:37:21;101672.59;;;21.98
64790;BMP280;51223;51.816;5.862;2022-07-29T07:39:51;101672.69;;;21.89
64790;BMP280;51223;51.816;5.862;2022-07-29T07:42:19;101670.16;;;21.77
64790;BMP280;51223;51.816;5.862;2022-07-29T07:44:48;101661.28;;;21.75
64790;BMP280;51223;51.816;5.862;2022-07-29T07:47:17;101662.13;;;22.10
64790;BMP280;51223;51.816;5.862;2022-07-29T07:49:54;101660.91;;;21.96
64790;BMP280;51223;51.816;5.862;2022-07-29T07:52:21;101669.50;;;22.17
64790;BMP280;51223;51.816;5.862;2022-07-29T07:54:48;101666.72;;;22.37
64790;BMP280;51223;51.816;5.862;2022-07-29T07:57:23;101658.16;;;22.57
64790;BMP280;51223;51.816;5.862;2022-07-29T07:59:48;101666.06;;;22.48
64790;BMP280;51223;51.816;5.862;2022-07-29T08:02:14;101658.94;;;22.58
64790;BMP280;51223;51.816;5.862;2022-07-29T08:04:40;101662.81;;;22.55
64790;BMP280;51223;51.816;5.862;2022-07-29T08:07:06;101671.03;;;22.32
64790;BMP280;51223;51.816;5.862;2022-07-29T08:09:33;101673.28;;;22.08
64790;BMP280;51223;51.816;5.862;2022-07-29T08:12:00;101680.78;;;22.40
64790;BMP280;51223;51.816;5.862;2022-07-29T08:14:47;101683.75;;;21.96
64790;BMP280;51223;51.816;5.862;2022-07-29T08:17:13;101688.81;;;22.22
64790;BMP280;51223;51.816;5.862;2022-07-29T08:19:38;101686.31;;;22.64
64790;BMP280;51223;51.816;5.862;2022-07-29T08:22:09;101675.72;;;22.15
64790;BMP280;51223;51.816;5.862;2022-07-29T08:24:40;101676.00;;;22.72
64790;BMP280;51223;51.816;5.862;2022-07-29T08:27:25;101683.78;;;22.52
64790;BMP280;51223;51.816;5.862;2022-07-29T08:29:53;101681.25;;;22.74
64790;BMP280;51223;51.816;5.862;2022-07-29T08:32:21;101678.53;;;22.30
64790;BMP280;51223;51.816;5.862;2022-07-29T08:34:47;101682.75;;;22.34
64790;BMP280;51223;51.816;5.862;2022-07-29T08:37:13;101682.09;;;22.60
64790;BMP280;51223;51.816;5.862;2022-07-29T08:39:38;101684.72;;;22.08
64790;BMP280;51223;51.816;5.862;2022-07-29T08:45:02;101691.72;;;22.07
64790;BMP280;51223;51.816;5.862;2022-07-29T08:47:29;101692.78;;;21.95
64790;BMP280;51223;51.816;5.862;2022-07-29T08:49:57;101695.97;;;22.47
64790;BMP280;51223;51.816;5.862;2022-07-29T08:52:26;101696.91;;;22.78
64790;BMP280;51223;51.816;5.862;2022-07-29T08:54:54;101697.53;;;22.68
64790;BMP280;51223;51.816;5.862;2022-07-29T08:57:21;101699.59;;;22.32
64790;BMP280;51223;51.816;5.862;2022-07-29T08:59:49;101701.00;;;22.37
64790;BMP280;51223;51.816;5.862;2022-07-29T09:02:22;101699.47;;;22.56
64790;BMP280;51223;51.816;5.862;2022-07-29T09:04:51;101692.50;;;22.63
64790;BMP280;51223;51.816;5.862;2022-07-29T09:07:18;101695.97;;;22.87
64790;BMP280;51223;51.816;5.862;2022-07-29T09:09:44;101698.38;;;23.14
64790;BMP280;51223;51.816;5.862;2022-07-29T09:12:10;101702.97;;;23.06
64790;BMP280;51223;51.816;5.862;2022-07-29T09:14:40;101708.25;;;23.33
64790;BMP280;51223;51.816;5.862;2022-07-29T09:17:07;101701.31;;;23.46
64790;BMP280;51223;51.816;5.862;2022-07-29T09:19:40;101684.91;;;23.66
64790;BMP280;51223;51.816;5.862;2022-07-29T09:22:06;101680.13;;;23.58
64790;BMP280;51223;51.816;5.862;2022-07-29T09:24:45;101681.13;;;23.86
64790;BMP280;51223;51.816;5.862;2022-07-29T09:27:42;101681.56;;;24.05
64790;BMP280;51223;51.816;5.862;2022-07-29T09:30:15;101687.03;;;24.08
64790;BMP280;51223;51.816;5.862;2022-07-29T09:33:01;101706.09;;;24.54
64790;BMP280;51223;51.816;5.862;2022-07-29T09:35:29;101711.41;;;24.29
64790;BMP280;51223;51.816;5.862;2022-07-29T09:37:55;101709.69;;;24.49
64790;BMP280;51223;51.816;5.862;2022-07-29T09:40:27;101711.28;;;24.50
64790;BMP280;51223;51.816;5.862;2022-07-29T09:43:09;101720.34;;;24.37
64790;BMP280;51223;51.816;5.862;2022-07-29T09:45:35;101705.84;;;24.52
64790;BMP280;51223;51.816;5.862;2022-07-29T09:48:17;101706.94;;;24.65
64790;BMP280;51223;51.816;5.862;2022-07-29T09:50:47;101711.59;;;25.39
64790;BMP280;51223;51.816;5.862;2022-07-29T09:53:35;101692.81;;;25.38
64790;BMP280;51223;51.816;5.862;2022-07-29T09:56:02;101694.13;;;25.53
64790;BMP280;51223;51.816;5.862;2022-07-29T09:58:28;101697.78;;;25.54
64790;BMP280;51223;51.816;5.862;2022-07-29T10:00:54;101697.25;;;26.11
64790;BMP280;51223;51.816;5.862;2022-07-29T10:03:23;101703.78;;;25.56
64790;BMP280;51223;51.816;5.862;2022-07-29T10:06:09;101701.69;;;25.40
64790;BMP280;51223;51.816;5.862;2022-07-29T10:08:36;101704.06;;;25.80
64790;BMP280;51223;51.816;5.862;2022-07-29T10:11:16;101692.63;;;24.76
64790;BMP280;51223;51.816;5.862;2022-07-29T10:13:49;101701.69;;;25.95
64790;BMP280;51223;51.816;5.862;2022-07-29T10:16:16;101706.69;;;25.61
64790;BMP280;51223;51.816;5.862;2022-07-29T10:18:42;101706.16;;;25.68
64790;BMP280;51223;51.816;5.862;2022-07-29T10:21:12;101713.91;;;26.29
64790;BMP280;51223;51.816;5.862;2022-07-29T10:23:43;101706.13;;;25.91
64790;BMP280;51223;51.816;5.862;2022-07-29T10:26:15;101707.63;;;26.36
64790;BMP280;51223;51.816;5.862;2022-07-29T10:28:41;101702.28;;;26.62
64790;BMP280;51223;51.816;5.862;2022-07-29T10:31:13;101702.06;;;26.55
64790;BMP280;51223;51.816;5.862;2022-07-29T10:34:04;101693.25;;;26.36
64790;BMP280;51223;51.816;5.862;2022-07-29T10:36:54;101700.19;;;27.80
64790;BMP280;51223;51.816;5.862;2022-07-29T10:40:06;101697.97;;;27.62
64790;BMP280;51223;51.816;5.862;2022-07-29T10:42:29;101687.31;;;25.95
64790;BMP280;51223;51.816;5.862;2022-07-29T10:45:08;101686.03;;;25.96
64790;BMP280;51223;51.816;5.862;2022-07-29T10:47:43;101692.22;;;26.22
64790;BMP280;51223;51.816;5.862;2022-07-29T10:50:13;101703.66;;;26.45
64790;BMP280;51223;51.816;5.862;2022-07-29T10:55:36;101698.63;;;27.08
64790;BMP280;51223;51.816;5.862;2022-07-29T10:58:18;101699.94;;;28.02
64790;BMP280;51223;51.816;5.862;2022-07-29T11:00:51;101696.09;;;27.70
64790;BMP280;51223;51.816;5.862;2022-07-29T11:03:46;101703.44;;;27.36
64790;BMP280;51223;51.816;5.862;2022-07-29T11:06:13;101694.44;;;27.09
64790;BMP280;51223;51.816;5.862;2022-07-29T11:08:40;101702.13;;;27.37
64790;BMP280;51223;51.816;5.862;2022-07-29T11:13:53;101697.03;;;27.54
64790;BMP280;51223;51.816;5.862;2022-07-29T11:16:31;101693.00;;;28.16
64790;BMP280;51223;51.816;5.862;2022-07-29T11:22:07;101688.03;;;27.27
64790;BMP280;51223;51.816;5.862;2022-07-29T11:24:36;101688.03;;;28.11
64790;BMP280;51223;51.816;5.862;2022-07-29T11:27:17;101688.31;;;26.83
64790;BMP280;51223;51.816;5.862;2022-07-29T11:30:11;101696.22;;;28.31
64790;BMP280;51223;51.816;5.862;2022-07-29T11:32:40;101694.81;;;27.95
64790;BMP280;51223;51.816;5.862;2022-07-29T11:35:21;101696.75;;;27.52
64790;BMP280;51223;51.816;5.862;2022-07-29T11:43:49;101692.13;;;28.21
64790;BMP280;51223;51.816;5.862;2022-07-29T11:46:49;101689.16;;;28.70
64790;BMP280;51223;51.816;5.862;2022-07-29T11:49:23;101684.63;;;28.56
64790;BMP280;51223;51.816;5.862;2022-07-29T11:51:57;101701.72;;;28.11
64790;BMP280;51223;51.816;5.862;2022-07-29T11:54:31;101681.59;;;28.85
64790;BMP280;51223;51.816;5.862;2022-07-29T11:57:00;101686.41;;;29.28
64790;BMP280;51223;51.816;5.862;2022-07-29T11:59:55;101684.09;;;28.76
64790;BMP280;51223;51.816;5.862;2022-07-29T12:02:37;101682.13;;;28.47
64790;BMP280;51223;51.816;5.862;2022-07-29T12:05:03;101677.00;;;29.09
64790;BMP280;51223;51.816;5.862;2022-07-29T12:07:31;101684.13;;;29.39
64790;BMP280;51223;51.816;5.862;2022-07-29T12:09:57;101681.31;;;29.34
64790;BMP280;51223;51.816;5.862;2022-07-29T12:12:24;101678.06;;;28.93
64790;BMP280;51223;51.816;5.862;2022-07-29T12:14:55;101676.84;;;29.52
64790;BMP280;51223;51.816;5.862;2022-07-29T12:17:33;101679.94;;;28.90
64790;BMP280;51223;51.816;5.862;2022-07-29T12:20:08;101680.44;;;29.07
64790;BMP280;51223;51.816;5.862;2022-07-29T12:22:37;101677.19;;;29.74
64790;BMP280;51223;51.816;5.862;2022-07-29T12:25:05;101674.44;;;30.08
64790;BMP280;51223;51.816;5.862;2022-07-29T12:27:31;101672.84;;;29.81
64790;BMP280;51223;51.816;5.862;2022-07-29T12:30:04;101682.88;;;30.06
64790;BMP280;51223;51.816;5.862;2022-07-29T12:32:48;101678.59;;;29.41
64790;BMP280;51223;51.816;5.862;2022-07-29T12:35:16;101669.31;;;29.62
64790;BMP280;51223;51.816;5.862;2022-07-29T12:37:48;101676.84;;;29.52
64790;BMP280;51223;51.816;5.862;2022-07-29T12:40:20;101673.84;;;29.12
64790;BMP280;51223;51.816;5.862;2022-07-29T12:43:06;101672.59;;;28.52
64790;BMP280;51223;51.816;5.862;2022-07-29T12:45:36;101678.53;;;28.78
64790;BMP280;51223;51.816;5.862;2022-07-29T12:48:06;101679.34;;;27.93
64790;BMP280;51223;51.816;5.862;2022-07-29T12:50:35;101678.06;;;27.88
64790;BMP280;51223;51.816;5.862;2022-07-29T12:53:09;101667.19;;;29.30
64790;BMP280;51223;51.816;5.862;2022-07-29T12:55:43;101674.19;;;29.22
64790;BMP280;51223;51.816;5.862;2022-07-29T12:58:36;101663.28;;;30.38
64790;BMP280;51223;51.816;5.862;2022-07-29T13:01:17;101671.63;;;29.63
64790;BMP280;51223;51.816;5.862;2022-07-29T13:03:56;101670.34;;;29.32
64790;BMP280;51223;51.816;5.862;2022-07-29T13:06:31;101661.63;;;29.19
64790;BMP280;51223;51.816;5.862;2022-07-29T13:09:14;101674.06;;;27.97
64790;BMP280;51223;51.816;5.862;2022-07-29T13:11:51;101670.25;;;29.51
64790;BMP280;51223;51.816;5.862;2022-07-29T13:17:19;101667.75;;;29.87
64790;BMP280;51223;51.816;5.862;2022-07-29T13:19:50;101660.59;;;30.27
64790;BMP280;51223;51.816;5.862;2022-07-29T13:22:22;101665.28;;;29.78
64790;BMP280;51223;51.816;5.862;2022-07-29T13:24:59;101659.97;;;29.95
64790;BMP280;51223;51.816;5.862;2022-07-29T13:27:30;101669.41;;;30.69
64790;BMP280;51223;51.816;5.862;2022-07-29T13:29:58;101669.50;;;31.38
64790;BMP280;51223;51.816;5.862;2022-07-29T13:32:28;101668.06;;;29.57
64790;BMP280;51223;51.816;5.862;2022-07-29T13:34:59;101662.31;;;30.57
64790;BMP280;51223;51.816;5.862;2022-07-29T13:37:26;101666.97;;;29.28
64790;BMP280;51223;51.816;5.862;2022-07-29T13:39:57;101667.75;;;30.94
64790;BMP280;51223;51.816;5.862;2022-07-29T13:42:45;101657.00;;;30.47
64790;BMP280;51223;51.816;5.862;2022-07-29T13:45:11;101661.84;;;30.06
64790;BMP280;51223;51.816;5.862;2022-07-29T13:47:43;101662.63;;;30.19
64790;BMP280;51223;51.816;5.862;2022-07-29T13:50:09;101655.38;;;30.39
64790;BMP280;51223;51.816;5.862;2022-07-29T13:52:38;101650.38;;;30.39
64790;BMP280;51223;51.816;5.862;2022-07-29T13:55:04;101660.53;;;31.08
64790;BMP280;51223;51.816;5.862;2022-07-29T13:57:53;101662.72;;;30.74
64790;BMP280;51223;51.816;5.862;2022-07-29T14:00:19;101652.94;;;30.64
64790;BMP280;51223;51.816;5.862;2022-07-29T14:02:45;101653.19;;;30.52
64790;BMP280;51223;51.816;5.862;2022-07-29T14:05:11;101656.19;;;31.15
64790;BMP280;51223;51.816;5.862;2022-07-29T14:07:51;101643.41;;;31.38
64790;BMP280;51223;51.816;5.862;2022-07-29T14:10:25;101649.84;;;32.01
64790;BMP280;51223;51.816;5.862;2022-07-29T14:12:58;101637.94;;;30.86
64790;BMP280;51223;51.816;5.862;2022-07-29T14:15:24;101637.50;;;30.01
64790;BMP280;51223;51.816;5.862;2022-07-29T14:17:50;101646.63;;;30.86
64790;BMP280;51223;51.816;5.862;2022-07-29T14:20:16;101654.63;;;31.62
64790;BMP280;51223;51.816;5.862;2022-07-29T14:22:44;101642.56;;;31.51
64790;BMP280;51223;51.816;5.862;2022-07-29T14:25:13;101640.97;;;31.22
64790;BMP280;51223;51.816;5.862;2022-07-29T14:27:39;101647.66;;;30.28
64790;BMP280;51223;51.816;5.862;2022-07-29T14:30:19;101638.06;;;30.80
64790;BMP280;51223;51.816;5.862;2022-07-29T14:33:17;101633.50;;;30.04
64790;BMP280;51223;51.816;5.862;2022-07-29T14:36:08;101633.94;;;29.95
64790;BMP280;51223;51.816;5.862;2022-07-29T14:38:38;101629.53;;;30.41
64790;BMP280;51223;51.816;5.862;2022-07-29T14:41:07;101632.59;;;29.70
64790;BMP280;51223;51.816;5.862;2022-07-29T14:43:54;101634.81;;;30.03
64790;BMP280;51223;51.816;5.862;2022-07-29T14:54:14;101629.59;;;31.24